Time;durP1;ratioP1;P1;durP2;ratioP2;P2;SDS_P1;SDS_P2;PMS_P1;PMS_P2;Temp;Humidity;BMP_temperature;BMP_pressure;BME280_temperature;BME280_humidity;BME280_pressure;Samples;Min_cycle;Max_cycle;Signal;HPM_P1;HPM_P2
2022/07/18 00:00:07;;;;;;;7.32;3.40;;;;;;;19.27;56.72;102480.00;4996257;28;96817;-35
2022/07/18 00:02:32;;;;;;;6.97;3.17;;;;;;;19.22;56.65;102482.19;4993639;28;99106;-35
2022/07/18 00:04:58;;;;;;;11.07;3.58;;;;;;;19.16;57.46;102477.13;4995672;28;97295;-35
2022/07/18 00:07:23;;;;;;;8.07;3.20;;;;;;;19.17;56.25;102473.41;4994970;28;96545;-35
2022/07/18 00:09:48;;;;;;;8.65;3.10;;;;;;;19.12;57.01;102461.88;4996000;28;96817;-35
2022/07/18 00:12:14;;;;;;;9.88;3.35;;;;;;;19.16;57.24;102474.38;4994871;28;99208;-35
2022/07/18 00:14:40;;;;;;;9.15;3.42;;;;;;;19.08;57.35;102463.97;4995438;28;97765;-35
2022/07/18 00:17:06;;;;;;;10.85;3.72;;;;;;;19.12;57.59;102456.38;4995576;28;96509;-35
2022/07/18 00:19:31;;;;;;;7.07;3.10;;;;;;;19.07;57.45;102456.72;4994148;28;96962;-35
2022/07/18 00:21:57;;;;;;;10.40;3.85;;;;;;;19.08;57.65;102448.34;4995145;28;97970;-35
2022/07/18 00:24:23;;;;;;;11.52;3.90;;;;;;;19.15;57.26;102469.91;4995457;28;97764;-35
2022/07/18 00:26:48;;;;;;;8.27;3.20;;;;;;;19.09;56.69;102444.63;4994035;28;96561;-35
2022/07/18 00:29:13;;;;;;;7.45;3.45;;;;;;;19.10;57.67;102448.25;4995605;28;96888;-35
2022/07/18 00:31:39;;;;;;;9.40;3.55;;;;;;;19.12;56.96;102451.78;4994663;28;97447;-35
2022/07/18 00:34:04;;;;;;;8.95;3.17;;;;;;;19.10;57.25;102453.75;4995109;28;97740;-35
2022/07/18 00:36:30;;;;;;;7.45;3.28;;;;;;;19.06;57.50;102442.09;4994488;28;96933;-35
2022/07/18 00:38:57;;;;;;;9.90;3.28;;;;;;;19.08;57.27;102451.09;4993904;28;96822;-35
2022/07/18 00:41:22;;;;;;;8.32;3.22;;;;;;;19.09;56.83;102446.47;4994805;28;97333;-35
2022/07/18 00:43:48;;;;;;;7.55;3.10;;;;;;;19.04;56.97;102441.34;4994931;28;98346;-35
2022/07/18 00:46:14;;;;;;;7.53;3.17;;;;;;;19.04;57.51;102452.31;4993800;28;96549;-35
2022/07/18 00:48:40;;;;;;;7.22;3.10;;;;;;;18.91;57.09;102434.97;4995662;28;96507;-35
2022/07/18 00:51:06;;;;;;;7.75;3.10;;;;;;;18.98;57.71;102455.50;4994725;28;98063;-35
2022/07/18 00:53:32;;;;;;;9.55;3.10;;;;;;;18.92;57.92;102446.81;4993280;28;101545;-35
2022/07/18 00:55:57;;;;;;;7.80;3.42;;;;;;;18.92;57.24;102446.81;4994564;28;96629;-35
2022/07/18 00:58:23;;;;;;;10.40;3.22;;;;;;;18.84;57.34;102445.50;4995061;28;96782;-35
2022/07/18 01:03:33;;;;;;;6.60;2.58;;;;;;;18.77;58.07;102443.28;4994950;28;96967;-34
2022/07/18 01:05:58;;;;;;;8.38;3.20;;;;;;;18.73;57.93;102447.22;4995089;28;96483;-35
2022/07/18 01:08:23;;;;;;;8.68;2.90;;;;;;;18.67;58.90;102454.03;4995063;28;96868;-35
2022/07/18 01:10:51;;;;;;;7.30;3.08;;;;;;;18.60;58.59;102430.72;4994573;28;97987;-35
2022/07/18 01:13:17;;;;;;;5.88;3.10;;;;;;;18.62;58.41;102443.38;4993314;28;100777;-35
2022/07/18 01:15:42;;;;;;;7.85;3.22;;;;;;;18.57;58.08;102437.31;4993228;28;96651;-35
2022/07/18 01:18:08;;;;;;;11.52;3.33;;;;;;;18.61;58.72;102452.56;4995861;28;96811;-35
2022/07/18 01:20:33;;;;;;;7.57;3.55;;;;;;;18.59;58.91;102451.81;4997514;28;97916;-34
2022/07/18 01:22:59;;;;;;;7.07;2.97;;;;;;;18.55;58.84;102441.16;4997923;28;97847;-35
2022/07/18 01:25:25;;;;;;;7.20;2.65;;;;;;;18.52;58.24;102434.03;4998219;28;96543;-35
2022/07/18 01:27:50;;;;;;;6.85;2.75;;;;;;;18.43;59.06;102423.69;4996796;28;97016;-35
2022/07/18 01:30:16;;;;;;;9.27;2.45;;;;;;;18.46;58.99;102429.81;4998132;28;97507;-34
2022/07/18 01:32:42;;;;;;;10.93;3.15;;;;;;;18.50;58.44;102446.09;4997784;28;98741;-35
2022/07/18 01:35:08;;;;;;;7.95;2.92;;;;;;;18.48;58.39;102442.56;4996422;28;96617;-35
2022/07/18 01:37:33;;;;;;;6.78;3.03;;;;;;;18.46;59.29;102445.41;4997586;28;96868;-35
2022/07/18 01:39:59;;;;;;;9.30;3.13;;;;;;;18.39;58.92;102433.09;4997608;28;97870;-35
2022/07/18 01:42:24;;;;;;;5.43;2.25;;;;;;;18.37;59.25;102424.09;4997707;28;97769;-35
2022/07/18 01:44:49;;;;;;;5.60;2.75;;;;;;;18.33;59.18;102426.19;4997474;28;96756;-35
2022/07/18 01:47:16;;;;;;;5.75;2.50;;;;;;;18.29;58.89;102415.53;4997998;28;96763;-34
2022/07/18 01:49:41;;;;;;;8.35;2.60;;;;;;;18.27;59.28;102418.38;4996069;28;101010;-35
2022/07/18 01:52:07;;;;;;;6.45;2.30;;;;;;;18.31;59.61;102436.38;4997573;28;97401;-35
2022/07/18 01:54:34;;;;;;;6.03;2.83;;;;;;;18.24;59.50;102424.09;4997560;28;96676;-35
2022/07/18 01:57:02;;;;;;;7.50;2.58;;;;;;;18.18;60.13;102419.88;4996302;28;96789;-34
2022/07/18 01:59:28;;;;;;;8.30;2.63;;;;;;;18.18;60.29;102419.00;4996075;28;100858;-35
2022/07/18 02:01:53;;;;;;;5.78;2.40;;;;;;;18.19;59.34;102420.78;4997561;28;97819;-35
2022/07/18 02:04:18;;;;;;;5.50;2.33;;;;;;;18.18;60.22;102425.34;4997797;28;96554;-34
2022/07/18 02:06:45;;;;;;;5.35;2.63;;;;;;;18.13;59.68;102411.09;4997478;28;96778;-35
2022/07/18 02:09:10;;;;;;;6.88;2.50;;;;;;;18.07;59.83;102406.03;4995366;28;101163;-35
2022/07/18 02:11:36;;;;;;;4.85;2.40;;;;;;;18.10;59.89;102411.31;4995845;28;100473;-35
2022/07/18 02:14:03;;;;;;;6.32;2.45;;;;;;;18.07;60.35;102411.53;4997458;28;96580;-35
2022/07/18 02:16:29;;;;;;;6.75;2.50;;;;;;;18.10;59.96;102419.53;4995882;28;96953;-35
2022/07/18 02:18:55;;;;;;;5.82;2.92;;;;;;;18.03;59.80;102399.00;4996891;28;99245;-34
2022/07/18 02:21:20;;;;;;;6.38;2.55;;;;;;;18.06;59.58;102403.41;4995290;28;100923;-35
2022/07/18 02:23:46;;;;;;;4.60;2.28;;;;;;;18.04;60.04;102398.00;4997295;28;96563;-35
2022/07/18 02:26:12;;;;;;;6.05;2.60;;;;;;;18.03;60.11;102402.63;4998013;28;96789;-35
2022/07/18 02:28:37;;;;;;;5.97;2.35;;;;;;;18.00;59.86;102402.84;4995536;28;100684;-35
2022/07/18 02:31:04;;;;;;;5.63;2.50;;;;;;;17.96;60.08;102397.66;4997010;28;97337;-34
2022/07/18 02:33:30;;;;;;;8.57;2.63;;;;;;;17.88;59.85;102383.59;4995212;28;96510;-34
2022/07/18 02:35:55;;;;;;;7.60;2.42;;;;;;;17.88;60.07;102383.59;4996402;28;96519;-35
2022/07/18 02:38:21;;;;;;;6.50;2.63;;;;;;;17.86;60.26;102389.19;4995511;28;101082;-35
2022/07/18 02:40:46;;;;;;;6.38;2.17;;;;;;;17.82;60.17;102379.41;4996712;28;99362;-34
2022/07/18 02:43:12;;;;;;;5.95;2.42;;;;;;;17.81;60.22;102383.13;4996954;28;96461;-34
2022/07/18 02:45:37;;;;;;;5.78;2.42;;;;;;;17.82;59.95;102374.78;4997223;28;96898;-35
2022/07/18 02:48:03;;;;;;;8.25;2.72;;;;;;;17.74;60.36;102368.94;4996787;28;97913;-34
2022/07/18 02:50:28;;;;;;;6.63;2.60;;;;;;;17.74;60.72;102377.16;4996962;28;97368;-35
2022/07/18 02:52:56;;;;;;;4.18;1.75;;;;;;;17.77;60.12;102385.16;4995436;28;96549;-35
2022/07/18 02:55:22;;;;;;;5.57;2.70;;;;;;;17.75;60.79;102387.13;4996836;28;96772;-34
2022/07/18 02:57:49;;;;;;;6.55;2.22;;;;;;;17.73;60.24;102377.25;4994493;28;101072;-34
2022/07/18 03:00:37;;;;;;;9.20;2.30;;;;;;;17.75;60.41;102373.41;4995073;28;100904;-34
2022/07/18 03:03:02;;;;;;;6.50;2.50;;;;;;;17.68;59.95;102368.47;4996467;28;96677;-34
2022/07/18 03:05:27;;;;;;;5.15;2.17;;;;;;;17.68;60.01;102374.81;4996522;28;97832;-34
2022/07/18 03:07:55;;;;;;;4.82;1.95;;;;;;;17.70;59.94;102374.72;4996484;28;97993;-34
2022/07/18 03:10:21;;;;;;;4.15;2.20;;;;;;;17.62;59.86;102367.03;4996508;28;98135;-34
2022/07/18 03:12:46;;;;;;;7.28;2.38;;;;;;;17.64;59.79;102370.53;4996315;28;96550;-34
2022/07/18 03:15:12;;;;;;;4.65;1.80;;;;;;;17.65;60.16;102377.75;4996771;28;96757;-34
2022/07/18 03:17:37;;;;;;;5.78;2.20;;;;;;;17.63;59.61;102363.28;4996075;28;97919;-35
2022/07/18 03:20:03;;;;;;;5.22;2.63;;;;;;;17.62;59.99;102361.53;4996055;28;99201;-34
2022/07/18 03:22:28;;;;;;;5.53;2.25;;;;;;;17.56;60.03;102359.19;4996075;28;96628;-35
2022/07/18 03:24:53;;;;;;;3.97;1.98;;;;;;;17.59;59.94;102368.09;4996193;28;96929;-35
2022/07/18 03:27:19;;;;;;;6.18;2.17;;;;;;;17.58;59.65;102363.59;4996105;28;98096;-34
2022/07/18 03:29:44;;;;;;;5.65;2.22;;;;;;;17.56;60.26;102357.31;4995954;28;98730;-34
2022/07/18 03:32:09;;;;;;;5.57;1.95;;;;;;;17.48;60.17;102342.41;4996126;28;96610;-35
2022/07/18 03:34:35;;;;;;;5.72;2.40;;;;;;;17.49;59.53;102341.41;4995742;28;96903;-35
2022/07/18 03:37:02;;;;;;;4.68;2.22;;;;;;;17.52;60.44;102349.41;4995625;28;97395;-35
2022/07/18 03:39:27;;;;;;;6.80;2.72;;;;;;;17.48;60.34;102348.75;4996192;28;97785;-34
2022/07/18 03:41:52;;;;;;;4.30;2.00;;;;;;;17.41;59.93;102329.09;4995762;28;96611;-34
2022/07/18 03:44:18;;;;;;;6.60;2.25;;;;;;;17.48;59.77;102339.66;4996048;28;96871;-34
2022/07/18 03:46:46;;;;;;;11.07;2.83;;;;;;;17.45;59.92;102331.63;4994944;28;98855;-35
2022/07/18 03:49:11;;;;;;;7.18;2.05;;;;;;;17.44;59.52;102341.72;4995044;28;112326;-35
2022/07/18 03:51:37;;;;;;;5.35;2.40;;;;;;;17.46;59.50;102344.38;4995912;28;96538;-35
2022/07/18 03:54:02;;;;;;;5.93;2.67;;;;;;;17.43;60.66;102329.00;4995799;28;96834;-35
2022/07/18 03:56:27;;;;;;;5.72;2.35;;;;;;;17.47;59.68;102340.63;4995708;28;98166;-34
2022/07/18 03:58:53;;;;;;;10.18;2.55;;;;;;;17.45;60.11;102342.59;4995611;28;97826;-34
2022/07/18 04:01:18;;;;;;;4.75;2.15;;;;;;;17.46;59.99;102347.09;4995530;28;96514;-35
2022/07/18 04:03:44;;;;;;;6.25;2.50;;;;;;;17.39;59.68;102341.16;4996241;28;96897;-34
2022/07/18 04:06:09;;;;;;;6.38;2.53;;;;;;;17.36;60.03;102334.00;4995440;28;97664;-34
2022/07/18 04:08:34;;;;;;;9.48;2.90;;;;;;;17.40;60.22;102337.44;4995396;28;97761;-34
2022/07/18 04:11:00;;;;;;;5.60;2.40;;;;;;;17.36;59.99;102334.00;4995342;28;96432;-34
2022/07/18 04:13:25;;;;;;;5.20;2.20;;;;;;;17.35;59.98;102329.53;4995502;28;97633;-34
2022/07/18 04:15:50;;;;;;;5.32;2.28;;;;;;;17.41;59.74;102337.31;4995275;28;97409;-35
2022/07/18 04:18:15;;;;;;;6.05;2.70;;;;;;;17.32;59.64;102323.38;4994717;28;114642;-34
2022/07/18 04:20:41;;;;;;;5.53;2.15;;;;;;;17.35;59.91;102326.78;4995585;28;96478;-34
2022/07/18 04:23:08;;;;;;;4.72;2.35;;;;;;;17.38;60.09;102332.06;4995461;28;96814;-34
2022/07/18 04:25:40;;;;;;;5.03;2.38;;;;;;;17.39;60.35;102333.81;4993712;28;101294;-34
2022/07/18 04:28:06;;;;;;;6.55;2.38;;;;;;;17.39;60.09;102325.59;4994090;28;100780;-34
2022/07/18 04:30:33;;;;;;;8.35;2.50;;;;;;;17.40;60.26;102343.78;4993846;28;96539;-34
2022/07/18 04:33:02;;;;;;;5.18;2.05;;;;;;;17.40;60.69;102341.06;4993810;28;96955;-35
2022/07/18 04:35:28;;;;;;;6.68;2.15;;;;;;;17.35;59.77;102328.63;4992739;28;101508;-34
2022/07/18 04:37:53;;;;;;;5.40;2.28;;;;;;;17.41;59.84;102333.72;4993272;28;100867;-34
2022/07/18 04:40:22;;;;;;;11.65;2.03;;;;;;;17.42;61.21;102329.97;4994594;28;110678;-34
2022/07/18 04:42:49;;;;;;;6.50;2.67;;;;;;;17.40;59.89;102321.88;4993653;28;96974;-34
2022/07/18 04:45:15;;;;;;;7.38;2.45;;;;;;;17.39;59.60;102313.75;4993388;28;100942;-34
2022/07/18 04:47:41;;;;;;;3.90;1.83;;;;;;;17.46;59.63;102322.44;4993396;28;101101;-34
2022/07/18 04:50:07;;;;;;;4.72;2.22;;;;;;;17.36;59.65;102311.22;4995133;28;96700;-34
2022/07/18 04:52:41;;;;;;;5.97;2.45;;;;;;;17.48;59.64;102323.22;4992854;28;96866;-34
2022/07/18 04:55:08;;;;;;;7.25;2.42;;;;;;;17.45;59.67;102324.31;4994905;28;97580;-34
2022/07/18 04:57:34;;;;;;;6.82;1.83;;;;;;;17.53;59.39;102338.38;4993205;28;101749;-35
2022/07/18 05:00:00;;;;;;;5.43;2.25;;;;;;;17.52;59.28;102335.72;4994311;28;96565;-34
2022/07/18 05:02:26;;;;;;;5.80;2.30;;;;;;;17.53;59.33;102330.16;4993096;28;96977;-34
2022/07/18 05:04:51;;;;;;;6.30;2.50;;;;;;;17.58;59.40;102340.78;4994671;28;97665;-34
2022/07/18 05:07:16;;;;;;;5.22;2.20;;;;;;;17.61;59.33;102337.84;4994724;28;99121;-34
2022/07/18 05:09:41;;;;;;;10.88;3.47;;;;;;;17.60;58.94;102336.97;4994656;28;96614;-34
2022/07/18 05:12:07;;;;;;;6.07;2.15;;;;;;;17.66;59.63;102337.53;4994414;28;101374;-35
2022/07/18 05:14:32;;;;;;;6.82;2.45;;;;;;;17.71;58.97;102339.00;4994470;28;97413;-34
2022/07/18 05:16:57;;;;;;;5.40;2.03;;;;;;;17.68;59.09;102332.81;4994711;28;100821;-34
2022/07/18 05:19:23;;;;;;;4.07;1.70;;;;;;;17.78;58.61;102334.84;4994816;28;96637;-34
2022/07/18 05:21:48;;;;;;;6.90;2.47;;;;;;;17.82;58.34;102333.66;4994414;28;96901;-34
2022/07/18 05:24:13;;;;;;;8.23;2.28;;;;;;;17.93;58.14;102338.44;4993756;28;97504;-34
2022/07/18 05:26:39;;;;;;;4.57;2.00;;;;;;;17.94;58.53;102333.81;4994296;28;97962;-34
2022/07/18 05:29:04;;;;;;;5.97;2.17;;;;;;;18.01;58.51;102335.16;4994225;28;96773;-34
2022/07/18 05:31:30;;;;;;;8.55;2.75;;;;;;;18.05;57.74;102333.97;4994629;28;96919;-34
2022/07/18 05:33:55;;;;;;;5.90;2.60;;;;;;;18.15;58.54;102332.31;4994202;28;98127;-34
2022/07/18 05:36:20;;;;;;;7.28;2.47;;;;;;;18.20;57.76;102340.25;4993640;28;98216;-35
2022/07/18 05:38:46;;;;;;;5.68;2.25;;;;;;;18.24;57.82;102333.56;4994656;28;96534;-34
2022/07/18 05:41:11;;;;;;;5.53;2.47;;;;;;;18.35;57.76;102335.53;4994814;28;96793;-34
2022/07/18 05:43:37;;;;;;;6.60;2.65;;;;;;;18.42;57.45;102323.13;4993733;28;96815;-34
2022/07/18 05:46:02;;;;;;;6.22;2.50;;;;;;;18.52;57.19;102324.25;4993765;28;99269;-35
2022/07/18 05:48:28;;;;;;;4.45;2.65;;;;;;;18.56;57.54;102317.53;4992862;28;96851;-34
2022/07/18 05:50:53;;;;;;;7.35;2.42;;;;;;;18.65;57.15;102313.25;4994302;28;96828;-35
2022/07/18 05:53:18;;;;;;;9.45;2.78;;;;;;;18.80;56.96;102325.88;4994113;28;97492;-34
2022/07/18 05:55:44;;;;;;;8.63;2.90;;;;;;;18.95;56.88;102323.91;4994241;28;97198;-34
2022/07/18 05:58:09;;;;;;;4.82;2.17;;;;;;;19.04;56.76;102315.00;4993934;28;96789;-35
2022/07/18 06:00:34;;;;;;;7.15;2.13;;;;;;;19.08;56.66;102301.91;4994212;28;96779;-34
2022/07/18 06:03:00;;;;;;;10.52;2.55;;;;;;;19.24;56.82;102316.25;4993611;28;97761;-35
2022/07/18 06:05:26;;;;;;;4.47;2.35;;;;;;;19.26;56.49;102292.28;4996909;28;99252;-34
2022/07/18 06:07:52;;;;;;;4.20;2.13;;;;;;;19.44;56.64;102309.22;4997607;28;96559;-34
2022/07/18 06:10:18;;;;;;;8.38;2.75;;;;;;;19.57;56.30;102311.03;4996176;28;97061;-34
2022/07/18 06:12:43;;;;;;;11.25;2.75;;;;;;;19.72;55.88;102315.41;4995154;28;99163;-35
2022/07/18 06:15:09;;;;;;;9.43;2.60;;;;;;;19.78;55.68;102306.69;4997182;28;98036;-34
2022/07/18 06:17:34;;;;;;;13.43;2.85;;;;;;;19.92;55.65;102300.09;4997363;28;96503;-34
2022/07/18 06:20:00;;;;;;;5.25;2.45;;;;;;;20.05;55.25;102300.91;4997674;28;96897;-34
2022/07/18 06:22:25;;;;;;;5.40;2.33;;;;;;;20.26;54.66;102295.59;4997174;28;97902;-35
2022/07/18 06:24:51;;;;;;;5.07;1.92;;;;;;;20.41;53.54;102298.13;4996949;28;97833;-34
2022/07/18 06:27:16;;;;;;;4.20;1.77;;;;;;;20.53;53.21;102300.75;4997085;28;96520;-35
2022/07/18 06:29:41;;;;;;;4.07;1.60;;;;;;;20.63;52.47;102280.75;4997716;28;96788;-34
2022/07/18 06:32:07;;;;;;;4.97;1.73;;;;;;;20.77;52.47;102289.63;4997107;28;97496;-35
2022/07/18 06:34:32;;;;;;;6.13;1.73;;;;;;;20.90;52.49;102297.75;4996849;28;105518;-35
2022/07/18 06:36:57;;;;;;;4.07;1.70;;;;;;;21.04;51.29;102293.88;4996340;28;96498;-34
2022/07/18 06:39:23;;;;;;;4.20;1.55;;;;;;;21.07;51.64;102279.84;4997242;28;96805;-34
2022/07/18 06:41:48;;;;;;;4.40;1.75;;;;;;;21.24;50.22;102291.31;4996642;28;97968;-34
2022/07/18 06:44:14;;;;;;;6.50;1.90;;;;;;;21.37;50.91;102290.16;4996477;28;99582;-34
2022/07/18 06:46:39;;;;;;;3.17;1.65;;;;;;;21.57;50.62;102299.56;4996898;28;96498;-34
2022/07/18 06:49:05;;;;;;;3.80;1.88;;;;;;;21.69;48.79;102294.88;4996959;28;96913;-34
2022/07/18 06:51:31;;;;;;;4.47;1.85;;;;;;;21.86;49.54;102298.94;4996693;28;97940;-35
2022/07/18 06:53:56;;;;;;;3.88;1.70;;;;;;;21.82;48.74;102294.69;4997051;28;97706;-34
2022/07/18 06:56:21;;;;;;;5.47;1.90;;;;;;;21.76;48.97;102295.19;4996581;28;96612;-35
2022/07/18 06:58:48;;;;;;;2.97;1.42;;;;;;;21.82;48.27;102306.59;4996949;28;96929;-35
2022/07/18 07:01:15;;;;;;;4.78;1.90;;;;;;;21.97;48.81;102303.50;4994360;28;100944;-35
2022/07/18 07:03:41;;;;;;;6.70;1.90;;;;;;;22.16;48.34;102298.13;4994910;28;100893;-35
2022/07/18 07:06:06;;;;;;;5.72;1.58;;;;;;;22.27;47.61;102297.22;4996835;28;96494;-35
2022/07/18 07:08:31;;;;;;;8.25;2.20;;;;;;;22.39;47.90;102292.50;4996424;28;96618;-34
2022/07/18 07:10:57;;;;;;;6.55;1.77;;;;;;;22.56;47.86;102296.50;4996209;28;98796;-35
2022/07/18 07:13:22;;;;;;;5.00;1.90;;;;;;;22.73;47.52;102295.84;4995838;28;106543;-35
2022/07/18 07:15:47;;;;;;;6.05;2.20;;;;;;;22.81;46.48;102286.88;4995776;28;96518;-35
2022/07/18 07:18:13;;;;;;;5.38;1.85;;;;;;;22.94;46.57;102281.13;4996952;28;96957;-35
2022/07/18 07:20:38;;;;;;;4.78;2.03;;;;;;;23.09;46.12;102293.56;4995958;28;99308;-35
2022/07/18 07:23:07;;;;;;;7.88;2.25;;;;;;;23.19;46.28;102285.28;4996147;28;97838;-35
2022/07/18 07:25:32;;;;;;;7.00;2.40;;;;;;;23.32;45.83;102289.53;4995762;28;96651;-35
2022/07/18 07:27:58;;;;;;;3.85;2.05;;;;;;;23.47;45.29;102283.59;4996579;28;96817;-35
2022/07/18 07:30:24;;;;;;;6.30;2.60;;;;;;;23.64;44.87;102288.41;4996141;28;97570;-35
2022/07/18 07:32:50;;;;;;;5.05;2.65;;;;;;;23.71;45.08;102278.50;4996403;28;97154;-35
2022/07/18 07:35:16;;;;;;;6.68;2.20;;;;;;;23.92;45.21;102285.81;4995972;28;96566;-35
2022/07/18 07:37:46;;;;;;;5.57;2.38;;;;;;;23.98;44.08;102281.56;4994491;28;97058;-35
2022/07/18 07:40:12;;;;;;;6.72;2.40;;;;;;;24.09;44.67;102284.19;4994184;28;100958;-35
2022/07/18 07:42:37;;;;;;;4.50;2.20;;;;;;;24.06;44.28;102279.81;4994848;28;101128;-35
2022/07/18 07:45:04;;;;;;;7.05;2.80;;;;;;;24.25;44.27;102283.59;4995861;28;96531;-35
2022/07/18 07:47:30;;;;;;;10.15;2.40;;;;;;;24.32;43.59;102270.88;4994691;28;96891;-35
2022/07/18 07:49:56;;;;;;;8.13;2.60;;;;;;;24.42;43.75;102277.25;4995036;28;98932;-35
2022/07/18 07:52:23;;;;;;;5.70;2.63;;;;;;;24.50;43.49;102268.22;4994228;28;100792;-35
2022/07/18 07:54:48;;;;;;;6.03;2.38;;;;;;;24.64;43.51;102277.94;4995568;28;96687;-35
2022/07/18 07:57:13;;;;;;;9.15;2.65;;;;;;;24.71;43.12;102279.94;4995948;28;96535;-35
2022/07/18 07:59:39;;;;;;;7.80;2.33;;;;;;;24.75;43.42;102283.31;4995031;28;112104;-35
2022/07/18 08:02:04;;;;;;;7.65;2.70;;;;;;;24.86;40.57;102272.03;4995348;28;97370;-35
2022/07/18 08:04:30;;;;;;;6.50;2.15;;;;;;;24.98;42.81;102264.38;4995869;28;96842;-35
2022/07/18 08:06:56;;;;;;;4.78;2.42;;;;;;;25.17;42.84;102268.91;4996296;28;96835;-35
2022/07/18 08:09:21;;;;;;;9.02;2.38;;;;;;;25.40;42.40;102267.47;4993991;28;100768;-35
2022/07/18 08:11:47;;;;;;;5.65;2.20;;;;;;;25.54;42.25;102273.50;4995512;28;97210;-35
2022/07/18 08:14:12;;;;;;;5.07;2.20;;;;;;;25.72;40.42;102262.41;4995572;28;96703;-35
2022/07/18 08:16:37;;;;;;;8.02;2.08;;;;;;;25.86;41.79;102272.97;4995815;28;96803;-35
2022/07/18 08:19:03;;;;;;;5.93;2.08;;;;;;;25.98;41.33;102268.03;4995374;28;97891;-34
2022/07/18 08:21:28;;;;;;;3.95;2.13;;;;;;;26.09;41.49;102265.00;4995214;28;97608;-34
2022/07/18 08:23:54;;;;;;;7.80;2.83;;;;;;;26.30;41.89;102272.09;4995141;28;96495;-34
2022/07/18 08:26:19;;;;;;;6.78;2.35;;;;;;;26.44;41.16;102269.59;4995507;28;96969;-34
2022/07/18 08:28:44;;;;;;;4.90;2.22;;;;;;;26.49;40.98;102272.75;4994740;28;99318;-35
2022/07/18 08:31:10;;;;;;;5.30;2.33;;;;;;;26.51;40.17;102269.81;4995626;28;97749;-34
2022/07/18 08:33:35;;;;;;;5.88;2.30;;;;;;;26.60;40.43;102270.75;4994045;28;96626;-34
2022/07/18 08:36:00;;;;;;;5.80;1.88;;;;;;;26.66;39.68;102256.19;4993575;28;113151;-34
2022/07/18 08:38:26;;;;;;;5.10;2.10;;;;;;;26.71;40.18;102267.69;4993777;28;118774;-34
2022/07/18 08:40:53;;;;;;;6.80;2.28;;;;;;;26.77;39.18;102263.34;4994487;28;117305;-35
2022/07/18 08:43:19;;;;;;;4.60;2.03;;;;;;;26.81;39.36;102265.63;4993782;28;96651;-35
2022/07/18 08:45:46;;;;;;;7.07;2.35;;;;;;;26.94;40.53;102255.97;4995274;28;96716;-35
2022/07/18 08:48:16;;;;;;;5.15;2.33;;;;;;;27.17;40.04;102268.19;4993388;28;101321;-35
2022/07/18 08:50:46;;;;;;;5.57;2.00;;;;;;;27.25;38.75;102257.13;4993367;28;101229;-35
2022/07/18 08:53:12;;;;;;;8.05;1.95;;;;;;;27.39;39.73;102263.97;4995257;28;96771;-35
2022/07/18 08:55:38;;;;;;;7.60;2.50;;;;;;;27.44;39.13;102267.09;4994114;28;96833;-34
2022/07/18 08:58:03;;;;;;;8.35;2.20;;;;;;;27.35;38.92;102257.00;4994800;28;97358;-35
2022/07/18 09:00:29;;;;;;;3.78;1.92;;;;;;;27.33;39.32;102264.63;4994732;28;97270;-35
2022/07/18 09:03:04;;;;;;;4.07;1.63;;;;;;;27.41;37.51;102270.22;4994352;28;96734;-35
2022/07/18 09:05:31;;;;;;;7.38;2.30;;;;;;;27.66;38.24;102273.03;4991989;28;96927;-35
2022/07/18 09:08:22;;;;;;;7.40;2.20;;;;;;;27.87;38.38;102270.66;4973035;28;101014;-35
2022/07/18 09:10:50;;;;;;;7.22;2.08;;;;;;;27.99;37.66;102273.97;4993294;28;99238;-35
2022/07/18 09:13:17;;;;;;;5.55;1.92;;;;;;;28.02;37.67;102269.94;4992845;28;96749;-34
2022/07/18 09:16:03;;;;;;;4.88;2.15;;;;;;;28.21;36.26;102275.16;4991867;28;96859;-35
2022/07/18 09:18:30;;;;;;;6.38;1.90;;;;;;;28.33;37.16;102273.72;4991676;28;99520;-35
2022/07/18 09:21:01;;;;;;;7.13;2.03;;;;;;;28.38;35.48;102262.06;4991963;28;100738;-35
2022/07/18 09:23:31;;;;;;;7.03;2.20;;;;;;;28.52;37.16;102274.44;4991167;28;97172;-35
2022/07/18 09:25:59;;;;;;;5.25;1.88;;;;;;;28.68;37.23;102268.81;4991245;28;96944;-35
2022/07/18 09:28:25;;;;;;;7.07;1.77;;;;;;;28.68;36.20;102262.38;4990657;28;100959;-35
2022/07/18 09:30:50;;;;;;;2.88;1.75;;;;;;;28.69;32.84;102266.88;4992074;28;100802;-35
2022/07/18 09:33:16;;;;;;;5.05;1.85;;;;;;;28.64;34.78;102267.41;4994352;28;96658;-34
2022/07/18 09:35:50;;;;;;;7.70;1.90;;;;;;;28.70;36.50;102261.13;4994229;28;99044;-35
2022/07/18 09:38:20;;;;;;;5.35;1.70;;;;;;;28.71;35.48;102251.69;4994034;28;99585;-34
2022/07/18 09:40:51;;;;;;;4.80;1.42;;;;;;;28.92;34.55;102255.81;4996197;28;101134;-34
2022/07/18 09:43:21;;;;;;;6.13;2.00;;;;;;;29.18;35.67;102256.41;4997806;28;96568;-35
2022/07/18 09:45:49;;;;;;;2.63;1.53;;;;;;;29.07;34.15;102247.56;4997116;28;96751;-34
2022/07/18 09:48:18;;;;;;;4.10;1.55;;;;;;;29.25;34.39;102244.47;4996063;28;100957;-35
2022/07/18 09:50:53;;;;;;;4.40;1.80;;;;;;;29.46;34.42;102243.81;4996234;28;101098;-34
2022/07/18 09:53:26;;;;;;;5.68;1.50;;;;;;;29.67;34.21;102249.63;4997181;28;96538;-35
2022/07/18 09:55:57;;;;;;;3.78;1.90;;;;;;;29.87;33.52;102237.94;4997644;28;96661;-35
2022/07/18 09:58:27;;;;;;;7.88;2.65;;;;;;;29.91;34.46;102230.91;4996061;28;100638;-35
2022/07/18 10:00:54;;;;;;;7.40;1.80;;;;;;;30.14;33.41;102245.72;4996093;28;101152;-35
2022/07/18 10:03:20;;;;;;;5.10;1.67;;;;;;;30.22;34.14;102240.06;4995935;28;96835;-35
2022/07/18 10:05:47;;;;;;;10.60;2.20;;;;;;;30.43;33.61;102244.03;4996282;28;96826;-35
2022/07/18 10:08:16;;;;;;;4.55;1.42;;;;;;;30.55;32.67;102241.63;4997158;28;97942;-35
2022/07/18 10:10:44;;;;;;;3.70;1.60;;;;;;;30.52;32.02;102242.91;4996187;28;100850;-35
2022/07/18 10:13:10;;;;;;;2.92;1.40;;;;;;;30.37;32.70;102236.44;4996072;28;96726;-35
2022/07/18 10:15:39;;;;;;;2.72;1.40;;;;;;;30.54;32.14;102245.50;4996120;28;96847;-34
2022/07/18 10:18:07;;;;;;;2.22;1.38;;;;;;;30.68;32.03;102236.25;4995313;28;101232;-35
2022/07/18 10:20:39;;;;;;;3.33;1.63;;;;;;;30.81;33.29;102243.94;4995392;28;100761;-35
2022/07/18 10:23:11;;;;;;;3.45;1.80;;;;;;;30.85;31.60;102245.34;4996024;28;96679;-35
2022/07/18 10:25:37;;;;;;;4.43;1.40;;;;;;;30.81;31.35;102227.16;4997209;28;96874;-35
2022/07/18 10:28:11;;;;;;;4.38;1.70;;;;;;;30.99;31.72;102240.78;4996785;28;99358;-34
2022/07/18 10:30:45;;;;;;;4.15;1.30;;;;;;;31.23;30.89;102240.41;4995396;28;100864;-35
2022/07/18 10:33:36;;;;;;;3.03;1.40;;;;;;;31.44;29.09;102241.53;4995738;28;96869;-35
2022/07/18 10:36:10;;;;;;;3.10;1.65;;;;;;;31.38;28.45;102239.50;4997100;28;96780;-35
2022/07/18 10:38:36;;;;;;;5.32;1.95;;;;;;;31.59;31.27;102241.47;4975655;28;101061;-35
2022/07/18 10:41:06;;;;;;;3.00;1.48;;;;;;;31.71;27.69;102245.47;4975541;28;100854;-35
2022/07/18 10:43:34;;;;;;;4.55;1.70;;;;;;;31.77;30.81;102235.38;4976575;28;96620;-35
2022/07/18 10:46:01;;;;;;;4.72;1.55;;;;;;;31.83;30.06;102229.00;4977007;28;96846;-35
2022/07/18 10:48:32;;;;;;;4.28;1.70;;;;;;;31.65;29.39;102235.06;4975412;28;101074;-35
2022/07/18 10:51:01;;;;;;;5.43;1.60;;;;;;;31.82;30.42;102230.03;4975684;28;97899;-35
2022/07/18 10:53:55;;;;;;;4.82;1.60;;;;;;;31.86;29.37;102226.63;4975695;28;96660;-35
2022/07/18 10:56:40;;;;;;;4.60;1.58;;;;;;;31.92;28.11;102227.78;4976884;28;96898;-35
2022/07/18 10:59:17;;;;;;;3.30;1.58;;;;;;;32.03;27.71;102238.44;4976099;28;99254;-35
2022/07/18 11:01:52;;;;;;;4.32;1.83;;;;;;;32.16;27.71;102220.88;4975317;28;100799;-35
2022/07/18 11:04:27;;;;;;;6.35;1.60;;;;;;;32.27;28.37;102225.03;4975125;28;96535;-35
2022/07/18 11:06:54;;;;;;;6.75;2.00;;;;;;;32.48;29.20;102216.53;4975380;28;96981;-35
2022/07/18 11:09:32;;;;;;;2.83;1.50;;;;;;;32.41;27.46;102214.78;4975823;28;100223;-35
2022/07/18 11:12:18;;;;;;;3.22;1.40;;;;;;;32.48;25.43;102224.09;4975053;28;100948;-35
2022/07/18 11:15:01;;;;;;;4.35;1.63;;;;;;;32.61;27.59;102223.31;4976504;28;96535;-35
2022/07/18 11:18:00;;;;;;;5.28;1.60;;;;;;;32.51;23.20;102221.78;4976820;28;96787;-35
2022/07/18 11:20:42;;;;;;;6.28;1.85;;;;;;;32.58;25.98;102214.28;4974863;28;99115;-35
2022/07/18 11:23:41;;;;;;;3.80;1.40;;;;;;;32.62;25.99;102214.72;4976127;28;97977;-35
2022/07/18 11:26:14;;;;;;;4.28;1.73;;;;;;;32.66;28.01;102213.22;4975037;28;96603;-35